地図

経路データ

SID SEASON NUMBER BASIN SUBBASIN NAME ISO_TIME NATURE LAT LON WMO_WIND WMO_PRES WMO_AGENCY TRACK_TYPE DIST2LAND LANDFALL IFLAG USA_AGENCY USA_ATCF_ID USA_LAT USA_LON USA_RECORD USA_STATUS USA_WIND USA_PRES USA_SSHS USA_R34_NE USA_R34_SE USA_R34_SW USA_R34_NW USA_R50_NE USA_R50_SE USA_R50_SW USA_R50_NW USA_R64_NE USA_R64_SE USA_R64_SW USA_R64_NW USA_POCI USA_ROCI USA_RMW USA_EYE TOKYO_LAT TOKYO_LON TOKYO_GRADE TOKYO_WIND TOKYO_PRES TOKYO_R50_DIR TOKYO_R50_LONG TOKYO_R50_SHORT TOKYO_R30_DIR TOKYO_R30_LONG TOKYO_R30_SHORT TOKYO_LAND CMA_LAT CMA_LON CMA_CAT CMA_WIND CMA_PRES HKO_LAT HKO_LON HKO_CAT HKO_WIND HKO_PRES NEWDELHI_LAT NEWDELHI_LON NEWDELHI_GRADE NEWDELHI_WIND NEWDELHI_PRES NEWDELHI_CI NEWDELHI_DP NEWDELHI_POCI REUNION_LAT REUNION_LON REUNION_TYPE REUNION_WIND REUNION_PRES REUNION_TNUM REUNION_CI REUNION_RMW REUNION_R34_NE REUNION_R34_SE REUNION_R34_SW REUNION_R34_NW REUNION_R50_NE REUNION_R50_SE REUNION_R50_SW REUNION_R50_NW REUNION_R64_NE REUNION_R64_SE REUNION_R64_SW REUNION_R64_NW BOM_LAT BOM_LON BOM_TYPE BOM_WIND BOM_PRES BOM_TNUM BOM_CI BOM_RMW BOM_R34_NE BOM_R34_SE BOM_R34_SW BOM_R34_NW BOM_R50_NE BOM_R50_SE BOM_R50_SW BOM_R50_NW BOM_R64_NE BOM_R64_SE BOM_R64_SW BOM_R64_NW BOM_ROCI BOM_POCI BOM_EYE BOM_POS_METHOD BOM_PRES_METHOD NADI_LAT NADI_LON NADI_CAT NADI_WIND NADI_PRES WELLINGTON_LAT WELLINGTON_LON WELLINGTON_WIND WELLINGTON_PRES DS824_LAT DS824_LON DS824_STAGE DS824_WIND DS824_PRES TD9636_LAT TD9636_LON TD9636_STAGE TD9636_WIND TD9636_PRES TD9635_LAT TD9635_LON TD9635_WIND TD9635_PRES TD9635_ROCI NEUMANN_LAT NEUMANN_LON NEUMANN_CLASS NEUMANN_WIND NEUMANN_PRES MLC_LAT MLC_LON MLC_CLASS MLC_WIND MLC_PRES USA_GUST BOM_GUST BOM_GUST_PER REUNION_GUST REUNION_GUST_PER USA_SEAHGT USA_SEARAD_NE USA_SEARAD_SE USA_SEARAD_SW USA_SEARAD_NW STORM_SPEED STORM_DIR
1947306N08140 1947 90 WP MM DORA 1947-11-02 00:00:00 TS 7.60000 140.100 main 1050 1041 O________OOO__ jtwc_wp WP211947 7.60000 140.100 70 1 7.60000 140.100 TC 70 7.60000 140.100 3 70 7.60000 140.100 70 989 360 19 292
1947306N08140 1947 90 WP MM DORA 1947-11-02 03:00:00 TS 7.95518 139.201 main 1051 1044 P________PPP__ WP211947 7.96328 139.111 72 1 7.96328 139.111 TC 72 7.93088 139.472 3 71 7.96328 139.111 72 988 390 17 294
1947306N08140 1947 90 WP MM DORA 1947-11-02 06:00:00 TS 8.28974 138.524 main 1058 1055 O________OPO__ jtwc_wp WP211947 8.30000 138.400 75 1 8.30000 138.400 TC 75 8.25897 138.895 3 72 8.30000 138.400 75 988 420 12 303
1947306N08140 1947 90 WP MM DORA 1947-11-02 09:00:00 TS 8.59538 138.214 main 1081 1081 P________PPP__ WP211947 8.59967 138.145 75 1 8.59967 138.145 TC 75 8.58251 138.420 3 73 8.59967 138.145 75 987 360 7 326
1947306N08140 1947 90 WP MM DORA 1947-11-02 12:00:00 TS 8.90000 138.100 main 1110 1110 O________OOO__ jtwc_wp WP211947 8.90000 138.100 75 1 8.90000 138.100 TC 75 8.90000 138.100 4 75 8.90000 138.100 75 986 300 7 338
1947306N08140 1947 90 WP MM DORA 1947-11-02 15:00:00 TS 9.23524 137.947 main 1138 1138 P________PPP__ WP211947 9.24250 137.943 75 1 9.24250 137.943 TC 75 9.21347 137.959 4 76 9.24250 137.943 75 985 270 7 339
1947306N08140 1947 90 WP MM DORA 1947-11-02 18:00:00 TS 9.58466 137.827 main 1179 1179 O________OPO__ jtwc_wp WP211947 9.60000 137.800 75 1 9.60000 137.800 TC 75 9.53862 137.907 4 77 9.60000 137.800 75 984 240 7 346
1947306N08140 1947 90 WP MM DORA 1947-11-02 21:00:00 TS 9.87972 137.788 main 1212 1212 P________PPP__ WP211947 9.87480 137.774 77 1 9.87480 137.774 TC 77 9.89448 137.827 4 78 9.87480 137.774 77 983 270 8 343
1947306N08140 1947 90 WP MM DORA 1947-11-03 00:00:00 TS 10.3000 137.600 main 1243 1209 O________OOO__ jtwc_wp WP211947 10.3000 137.600 80 1 10.3000 137.600 TC 80 10.3000 137.600 4 80 10.3000 137.600 80 983 300 14 329
1947306N08140 1947 90 WP MM DORA 1947-11-03 03:00:00 TS 11.0926 137.055 main 1211 1153 P________PPP__ WP211947 11.1726 137.049 80 1 11.1726 137.049 TC 80 10.8524 137.076 4 80 11.1726 137.049 80 982 300 20 321
1947306N08140 1947 90 WP MM DORA 1947-11-03 06:00:00 TS 11.8602 136.323 main 1145 1076 O________OPO__ jtwc_wp WP211947 12.0000 136.300 80 1 12.0000 136.300 TC 80 11.4408 136.391 4 80 12.0000 136.300 80 981 300 19 308
1947306N08140 1947 90 WP MM DORA 1947-11-03 09:00:00 TS 12.2358 135.576 main 1076 993 P________PPP__ WP211947 12.3199 135.564 80 1 12.3199 135.564 TC 80 11.9837 135.610 4 80 12.3199 135.564 80 980 330 16 290
1947306N08140 1947 90 WP MM DORA 1947-11-03 12:00:00 TS 12.4000 134.800 main 993 919 O________OOO__ jtwc_wp WP211947 12.4000 134.800 80 1 12.4000 134.800 TC 80 12.4000 134.800 4 80 12.4000 134.800 80 979 360 15 280
1947306N08140 1947 90 WP MM DORA 1947-11-03 15:00:00 TS 12.5000 134.033 main 908 834 P________PPP__ WP211947 12.4723 134.050 80 1 12.4723 134.050 TC 80 12.5833 133.982 4 82 12.4723 134.050 80 978 390 15 275
1947306N08140 1947 90 WP MM DORA 1947-11-03 18:00:00 TS 12.5341 133.266 main 834 751 O________OPO__ jtwc_wp WP211947 12.5000 133.300 80 1 12.5000 133.300 TC 80 12.6363 133.163 4 85 12.5000 133.300 80 978 420 15 273
1947306N08140 1947 90 WP MM DORA 1947-11-03 21:00:00 TS 12.5679 132.460 main 751 677 P________PPP__ WP211947 12.5503 132.475 85 2 12.5503 132.475 TC 85 12.6209 132.413 4 87 12.5503 132.475 85 977 420 14 273
1947306N08140 1947 90 WP MM DORA 1947-11-04 00:00:00 TS 12.6000 131.800 main 677 646 O________OOO__ jtwc_wp WP211947 12.6000 131.800 90 2 12.6000 131.800 TC 90 12.6000 131.800 4 90 12.6000 131.800 90 976 420 10 274
1947306N08140 1947 90 WP MM DORA 1947-11-04 03:00:00 TS 12.6421 131.456 main 646 628 P________PPP__ WP211947 12.6421 131.475 95 2 12.6421 131.475 TC 95 12.6422 131.398 4 90 12.6421 131.475 95 973 420 5 281
1947306N08140 1947 90 WP MM DORA 1947-11-04 06:00:00 TS 12.6990 131.259 main 628 600 O________OPO__ jtwc_wp WP211947 12.7000 131.300 100 3 12.7000 131.300 TC 100 12.6960 131.135 4 90 12.7000 131.300 100 970 420 4 287
1947306N08140 1947 90 WP MM DORA 1947-11-04 09:00:00 TS 12.7717 131.020 main 600 580 P________PPP__ WP211947 12.7700 131.042 95 2 12.7700 131.042 TC 95 12.7769 130.954 4 90 12.7700 131.042 95 972 450 5 294
1947306N08140 1947 90 WP MM DORA 1947-11-04 12:00:00 TS 12.9000 130.800 main 580 562 O________OOO__ jtwc_wp WP211947 12.9000 130.800 90 2 12.9000 130.800 TC 90 12.9000 130.800 4 90 12.9000 130.800 90 974 480 5 310
1947306N08140 1947 90 WP MM DORA 1947-11-04 15:00:00 TS 13.1247 130.594 main 562 545 P________PPP__ WP211947 13.1350 130.593 85 2 13.1350 130.593 TC 85 13.0939 130.598 4 85 13.1350 130.593 85 976 510 6 321
1947306N08140 1947 90 WP MM DORA 1947-11-04 18:00:00 TS 13.3818 130.402 main 548 533 O________OPO__ jtwc_wp WP211947 13.4000 130.400 80 1 13.4000 130.400 TC 80 13.3272 130.408 4 80 13.4000 130.400 80 978 540 6 323
1947306N08140 1947 90 WP MM DORA 1947-11-04 21:00:00 TS 13.6098 130.215 main 533 519 P________PPP__ WP211947 13.6224 130.215 75 1 13.6224 130.215 TC 75 13.5720 130.213 4 75 13.6224 130.215 75 979 510 6 317
1947306N08140 1947 90 WP MM DORA 1947-11-05 00:00:00 TS 13.8000 130.000 main 519 493 O________OOO__ jtwc_wp WP211947 13.8000 130.000 70 1 13.8000 130.000 TC 70 13.8000 130.000 4 70 13.8000 130.000 70 981 480 6 303
1947306N08140 1947 90 WP MM DORA 1947-11-05 03:00:00 TS 13.9199 129.719 main 493 468 P________PPP__ WP211947 13.9000 129.707 65 1 13.9000 129.707 TC 65 13.9796 129.755 4 67 13.9000 129.707 65 983 390 6 293
1947306N08140 1947 90 WP MM DORA 1947-11-05 06:00:00 TS 14.0343 129.422 main 468 459 O________OPO__ jtwc_wp WP211947 14.0000 129.400 60 0 14.0000 129.400 TC 60 14.1374 129.487 4 65 14.0000 129.400 60 985 300 6 299
1947306N08140 1947 90 WP MM DORA 1947-11-05 09:00:00 TS 14.2191 129.163 main 459 442 P________PPP__ WP211947 14.1999 129.150 60 0 14.1999 129.150 TC 60 14.2765 129.201 4 62 14.1999 129.150 60 986 330 6 306
1947306N08140 1947 90 WP MM DORA 1947-11-05 12:00:00 TS 14.4000 128.900 main 442 422 O________OOO__ jtwc_wp WP211947 14.4000 128.900 60 0 14.4000 128.900 TC 60 14.4000 128.900 2 60 14.4000 128.900 60 988 360 6 299
1947306N08140 1947 90 WP MM DORA 1947-11-05 15:00:00 TS 14.5158 128.609 main 422 405 P________PPP__ WP211947 14.5150 128.615 60 0 14.5150 128.615 TC 60 14.5184 128.589 2 63 14.5150 128.615 60 990 390 6 289
1947306N08140 1947 90 WP MM DORA 1947-11-05 18:00:00 TS 14.6056 128.291 main 405 389 O________OPO__ jtwc_wp WP211947 14.6000 128.300 60 0 14.6000 128.300 TC 60 14.6224 128.265 2 67 14.6000 128.300 60 992 420 7 286
1947306N08140 1947 90 WP MM DORA 1947-11-05 21:00:00 TS 14.7038 127.951 main 389 359 P________PPP__ WP211947 14.7000 127.957 67 1 14.7000 127.957 TC 67 14.7153 127.933 2 71 14.7000 127.957 67 989 420 7 286
1947306N08140 1947 90 WP MM DORA 1947-11-06 00:00:00 TS 14.8000 127.600 main 359 331 O________OOO__ jtwc_wp WP211947 14.8000 127.600 75 1 14.8000 127.600 TC 75 14.8000 127.600 3 75 14.8000 127.600 75 987 420 7 286
1947306N08140 1947 90 WP MM DORA 1947-11-06 03:00:00 TS 14.8990 127.261 main 331 296 P________PPP__ WP211947 14.9075 127.243 80 1 14.9075 127.243 TC 80 14.8734 127.315 3 77 14.9075 127.243 80 984 420 7 286
1947306N08140 1947 90 WP MM DORA 1947-11-06 06:00:00 TS 14.9854 126.931 main 296 267 O________OPO__ jtwc_wp WP211947 15.0000 126.900 85 2 15.0000 126.900 TC 85 14.9415 127.024 3 80 15.0000 126.900 85 982 420 6 283
1947306N08140 1947 90 WP MM DORA 1947-11-06 09:00:00 TS 15.0409 126.624 main 267 244 P________PPP__ WP211947 15.0499 126.600 85 2 15.0499 126.600 TC 85 15.0139 126.696 3 82 15.0499 126.600 85 979 420 6 281
1947306N08140 1947 90 WP MM DORA 1947-11-06 12:00:00 TS 15.1000 126.300 main 244 225 O________OOO__ jtwc_wp WP211947 15.1000 126.300 85 2 15.1000 126.300 TC 85 15.1000 126.300 4 85 15.1000 126.300 85 976 420 7 283
1947306N08140 1947 90 WP MM DORA 1947-11-06 15:00:00 TS 15.1922 125.965 main 225 194 P________PPP__ WP211947 15.1845 126.025 90 2 15.1845 126.025 TC 90 15.2152 125.785 4 88 15.1845 126.025 90 973 420 8 285
1947306N08140 1947 90 WP MM DORA 1947-11-06 18:00:00 TS 15.3108 125.501 main 194 165 O________OPO__ jtwc_wp WP211947 15.3000 125.600 95 2 15.3000 125.600 TC 95 15.3432 125.203 4 92 15.3000 125.600 95 971 420 12 283
1947306N08140 1947 90 WP MM DORA 1947-11-06 21:00:00 TS 15.4624 124.754 main 176 167 P________PPP__ WP211947 15.4583 124.808 97 3 15.4583 124.808 TC 97 15.4745 124.594 4 96 15.4583 124.808 97 968 420 15 281
1947306N08140 1947 90 WP MM DORA 1947-11-07 00:00:00 TS 15.6000 124.000 main 179 159 O________OOO__ jtwc_wp WP211947 15.6000 124.000 100 3 15.6000 124.000 TC 100 15.6000 124.000 4 100 15.6000 124.000 100 965 420 12 280
1947306N08140 1947 90 WP MM DORA 1947-11-07 03:00:00 TS 15.6627 123.543 main 149 120 P________PPP__ WP211947 15.6493 123.570 95 2 15.6493 123.570 TC 95 15.7028 123.462 4 95 15.6493 123.570 95 968 390 8 279
1947306N08140 1947 90 WP MM DORA 1947-11-07 06:00:00 TS 15.7249 123.137 main 111 61 O________OPO__ jtwc_wp WP211947 15.7000 123.200 90 2 15.7000 123.200 TC 90 15.7996 122.947 4 90 15.7000 123.200 90 971 360 10 282
1947306N08140 1947 90 WP MM DORA 1947-11-07 09:00:00 TS 15.8562 122.570 main 54 0 P________PPP__ WP211947 15.8427 122.608 85 2 15.8427 122.608 TC 85 15.8966 122.459 4 85 15.8427 122.608 85 973 330 11 284
1947306N08140 1947 90 WP MM DORA 1947-11-07 12:00:00 TS 16.0000 122.000 main 0 0 O________OOO__ jtwc_wp WP211947 16.0000 122.000 80 1 16.0000 122.000 TC 80 16.0000 122.000 4 80 16.0000 122.000 80 976 300 10 284
1947306N08140 1947 90 WP MM DORA 1947-11-07 15:00:00 TS 16.0981 121.529 main 0 0 P________PPP__ WP211947 16.0998 121.512 77 1 16.0998 121.512 TC 77 16.0928 121.579 4 80 16.0998 121.512 77 979 300 9 283
1947306N08140 1947 90 WP MM DORA 1947-11-07 18:00:00 TS 16.1992 121.121 main 0 0 O________OPO__ jtwc_wp WP211947 16.2000 121.100 75 1 16.2000 121.100 TC 75 16.1967 121.184 4 80 16.2000 121.100 75 982 300 8 288
1947306N08140 1947 90 WP MM DORA 1947-11-07 21:00:00 TS 16.3329 120.767 main 0 0 P________PPP__ WP211947 16.3347 120.757 77 1 16.3347 120.757 TC 77 16.3272 120.797 4 80 16.3347 120.757 77 981 300 8 293
1947306N08140 1947 90 WP MM DORA 1947-11-08 00:00:00 TS 16.5000 120.400 main 0 0 O________OOO__ jtwc_wp WP211947 16.5000 120.400 80 1 16.5000 120.400 TC 80 16.5000 120.400 4 80 16.5000 120.400 80 980 300 9 293
1947306N08140 1947 90 WP MM DORA 1947-11-08 03:00:00 TS 16.6846 119.913 main 44 44 P________PPP__ WP211947 16.6701 119.907 80 1 16.6701 119.907 TC 80 16.7281 119.928 4 80 16.6701 119.907 80 981 300 10 294
1947306N08140 1947 90 WP MM DORA 1947-11-08 06:00:00 TS 16.9245 119.412 main 79 79 O________OPO__ jtwc_wp WP211947 16.9000 119.400 80 1 16.9000 119.400 TC 80 16.9980 119.448 4 80 16.9000 119.400 80 982 300 11 302
1947306N08140 1947 90 WP MM DORA 1947-11-08 09:00:00 TS 17.2497 118.970 main 131 131 P________PPP__ WP211947 17.2349 118.963 80 1 17.2349 118.963 TC 80 17.2938 118.994 4 80 17.2349 118.963 80 983 300 10 311
1947306N08140 1947 90 WP MM DORA 1947-11-08 12:00:00 TS 17.6000 118.600 main 180 180 O________OOO__ jtwc_wp WP211947 17.6000 118.600 80 1 17.6000 118.600 TC 80 17.6000 118.600 4 80 17.6000 118.600 80 984 300 9 316
1947306N08140 1947 90 WP MM DORA 1947-11-08 15:00:00 TS 17.9016 118.308 main 214 214 P________PPP__ WP211947 17.9074 118.320 77 1 17.9074 118.320 TC 77 17.8843 118.274 4 76 17.9074 118.320 77 984 300 8 320
1947306N08140 1947 90 WP MM DORA 1947-11-08 18:00:00 TS 18.1943 118.079 main 242 242 O________OPO__ jtwc_wp WP211947 18.2000 118.100 75 1 18.2000 118.100 TC 75 18.1770 118.015 4 72 18.2000 118.100 75 985 300 7 324
1947306N08140 1947 90 WP MM DORA 1947-11-08 21:00:00 TS 18.4841 117.858 main 273 273 P________PPP__ WP211947 18.4850 117.870 70 1 18.4850 117.870 TC 70 18.4813 117.824 4 68 18.4850 117.870 70 986 330 7 329
1947306N08140 1947 90 WP MM DORA 1947-11-09 00:00:00 TS 18.8000 117.700 main 305 305 O________OOO__ jtwc_wp WP211947 18.8000 117.700 65 1 18.8000 117.700 TC 65 18.8000 117.700 4 65 18.8000 117.700 65 987 360 7 342
1947306N08140 1947 90 WP MM DORA 1947-11-09 03:00:00 TS 19.1879 117.610 main 328 328 P________PPP__ WP211947 19.2000 117.612 65 1 19.2000 117.612 TC 65 19.1516 117.603 4 65 19.2000 117.612 65 987 330 8 353
1947306N08140 1947 90 WP MM DORA 1947-11-09 06:00:00 TS 19.5787 117.593 main 342 342 O________OPO__ jtwc_wp WP211947 19.6000 117.600 65 1 19.6000 117.600 TC 65 19.5147 117.572 4 65 19.6000 117.600 65 988 300 7 2
1947306N08140 1947 90 WP MM DORA 1947-11-09 09:00:00 TS 19.9094 117.611 main 354 326 P________PPP__ WP211947 19.9225 117.613 65 1 19.9225 117.613 TC 65 19.8704 117.606 4 65 19.9225 117.613 65 989 270 6 9
1947306N08140 1947 90 WP MM DORA 1947-11-09 12:00:00 TS 20.2000 117.700 main 326 304 O________OOO__ jtwc_wp WP211947 20.2000 117.700 65 1 20.2000 117.700 TC 65 20.2000 117.700 4 65 20.2000 117.700 65 990 240 6 24
1947306N08140 1947 90 WP MM DORA 1947-11-09 15:00:00 TS 20.4656 117.870 main 304 290 P________PPP__ WP211947 20.4575 117.877 62 0 20.4575 117.877 TC 62 20.4897 117.849 4 61 20.4575 117.877 62 991 240 6 36
1947306N08140 1947 90 WP MM DORA 1947-11-09 18:00:00 TS 20.7091 118.088 main 296 272 O________OPO__ jtwc_wp WP211947 20.7000 118.100 60 0 20.7000 118.100 TC 60 20.7454 118.042 4 57 20.7000 118.100 60 992 240 6 37
1947306N08140 1947 90 WP MM DORA 1947-11-09 21:00:00 TS 20.9604 118.269 main 266 235 P________PPP__ WP211947 20.9573 118.270 55 0 20.9573 118.270 TC 55 20.9785 118.264 4 53 20.9573 118.270 55 992 180 6 38
1947306N08140 1947 90 WP MM DORA 1947-11-10 00:00:00 TS 21.2000 118.500 main 235 197 O________OOO__ jtwc_wp WP211947 21.2000 118.500 50 0 21.2000 118.500 TC 50 21.2000 118.500 2 50 21.2000 118.500 50 993 120 7 51
1947306N08140 1947 90 WP MM DORA 1947-11-10 03:00:00 TS 21.4103 118.860 main 189 144 P________P_P__ WP211947 21.4104 118.860 37 0 21.4104 118.860 TC 37 2 21.4104 118.860 37 996 150 8 62
1947306N08140 1947 90 WP MM DORA 1947-11-10 06:00:00 TS 21.6000 119.300 main 144 O________O_O__ jtwc_wp WP211947 21.6000 119.300 25 -1 21.6000 119.300 TC 25 2 21.6000 119.300 25 1000 180 9 65

デジタル台風データ・検索

IBTrACS Databaseについて

本データベースは、米国NOAAが公開する1842年以降の世界の熱帯低気圧のベストトラックデータアーカイブInternational Best Track Archive for Climate Stewardship (IBTrACS)を、ウェブで閲覧しやすい形式に変換したものです。

最終更新日:2021-10-08